Big Bear Station Historical Data
Daily Summary for January 4, 2019 Units:  English    Metric   Both
Next Day »
Daily Weekly Monthly Yearly Custom
  High: Low: Average:
Temperature: 50.7 °F 18.3 °F 31.6 °F
Dew Point: 18.5 °F -0.1 °F 10 °F
Humidity: 88% 13% 49%
Wind Speed: 7.3mph 0.0mph 0.7mph
Wind Gust: -999.0mph - -
Wind- - South
Pressure: 23.53 in 23.41 in -
Precipitation: 0.02 in    
Historical Graphs
 
 
Tabular Data for January 4, 2019
Time Temperature Dew Point Pressure Wind Wind Speed Wind Gust Humidity Rainfall Rate (Hourly)
00:09 20.8 °F 16.7 °F 23.53 in Calm   -999.0 mph 84% 0.00 in
00:24 20.8 °F 15.9 °F 23.53 in Calm   -999.0 mph 81% 0.00 in
00:39 20.7 °F 16.1 °F 23.52 in Calm   -999.0 mph 82% 0.00 in
00:55 20.5 °F 15.6 °F 23.52 in Calm   -999.0 mph 81% 0.00 in
01:10 19.9 °F 15.6 °F 23.52 in Calm   -999.0 mph 83% 0.00 in
01:25 19.8 °F 16.0 °F 23.52 in Calm   -999.0 mph 85% 0.00 in
01:40 20.3 °F 16.2 °F 23.51 in Calm   -999.0 mph 84% 0.00 in
01:56 19.6 °F 14.7 °F 23.51 in Calm   -999.0 mph 81% 0.00 in
02:11 19.8 °F 16.0 °F 23.50 in Calm   -999.0 mph 85% 0.00 in
02:26 19.6 °F 15.6 °F 23.50 in Calm   -999.0 mph 84% 0.00 in
02:41 19.0 °F 15.8 °F 23.50 in Calm   -999.0 mph 87% 0.00 in
02:56 18.7 °F 15.5 °F 23.49 in Calm   -999.0 mph 87% 0.00 in
03:12 19.0 °F 16.0 °F 23.49 in Calm   -999.0 mph 88% 0.00 in
03:27 19.0 °F 15.8 °F 23.49 in Calm   -999.0 mph 87% 0.00 in
03:42 18.3 °F 15.1 °F 23.48 in Calm   -999.0 mph 87% 0.00 in
03:57 18.5 °F 15.5 °F 23.48 in Calm   -999.0 mph 88% 0.00 in
04:12 18.3 °F 15.3 °F 23.48 in Calm   -999.0 mph 88% 0.00 in
04:28 18.3 °F 14.5 °F 23.47 in Calm   -999.0 mph 85% 0.00 in
04:43 18.5 °F 14.2 °F 23.47 in Calm   -999.0 mph 83% 0.00 in
04:58 18.3 °F 13.2 °F 23.47 in Calm   -999.0 mph 80% 0.00 in
05:13 18.9 °F 13.5 °F 23.46 in Calm   -999.0 mph 79% 0.00 in
05:28 18.9 °F 14.0 °F 23.46 in Calm   -999.0 mph 81% 0.00 in
05:44 19.4 °F 14.8 °F 23.46 in Calm   -999.0 mph 82% 0.00 in
05:59 19.4 °F 14.2 °F 23.46 in Calm   -999.0 mph 80% 0.00 in
06:14 19.9 °F 13.3 °F 23.47 in Calm   -999.0 mph 75% 0.00 in
06:29 19.4 °F 13.1 °F 23.47 in Calm   -999.0 mph 76% 0.00 in
06:44 19.6 °F 13.6 °F 23.47 in Calm   -999.0 mph 77% 0.00 in
07:00 19.6 °F 13.9 °F 23.48 in Calm   -999.0 mph 78% 0.00 in
07:15 20.1 °F 13.4 °F 23.49 in Calm   -999.0 mph 75% 0.00 in
07:30 19.9 °F 13.3 °F 23.49 in Calm   -999.0 mph 75% 0.00 in
07:45 20.1 °F 14.0 °F 23.49 in Calm   -999.0 mph 77% 0.00 in
08:00 21.4 °F 14.1 °F 23.50 in Calm   -999.0 mph 73% 0.00 in
08:16 20.8 °F 14.4 °F 23.50 in Calm   -999.0 mph 76% 0.00 in
08:31 22.1 °F 16.0 °F 23.50 in Calm   -999.0 mph 77% 0.00 in
08:46 24.4 °F 17.9 °F 23.50 in Calm   -999.0 mph 76% 0.00 in
09:01 25.3 °F 18.5 °F 23.50 in Calm   -999.0 mph 75% 0.00 in
09:17 28.4 °F 15.9 °F 23.50 in Calm   -999.0 mph 59% 0.00 in
09:32 31.5 °F 11.6 °F 23.49 in Calm   -999.0 mph 43% 0.00 in
09:47 34.5 °F 9.0 °F 23.49 in Calm   -999.0 mph 34% 0.00 in
10:02 38.8 °F 9.2 °F 23.49 in Calm   -999.0 mph 29% 0.00 in
10:17 41.9 °F 7.7 °F 23.49 in Calm   -999.0 mph 24% 0.00 in
10:33 43.5 °F 9.1 °F 23.49 in NNE 1.1 mph -999.0 mph 24% 0.00 in
10:48 46.0 °F 7.1 °F 23.49 in Calm   -999.0 mph 20% 0.00 in
11:03 47.8 °F 6.3 °F 23.48 in South 2.7 mph -999.0 mph 18% 0.00 in
11:18 48.2 °F 6.6 °F 23.48 in NW 4.7 mph -999.0 mph 18% 0.00 in
11:34 48.2 °F 6.6 °F 23.47 in WNW 2.2 mph -999.0 mph 18% 0.00 in
11:49 49.1 °F 4.8 °F 23.47 in South 2.2 mph -999.0 mph 16% 0.00 in
12:04 50.7 °F 1.6 °F 23.46 in South 5.8 mph -999.0 mph 13% 0.00 in
12:20 49.5 °F 0.6 °F 23.45 in SSW 7.3 mph -999.0 mph 13% 0.00 in
12:35 50.4 °F 2.9 °F 23.45 in NW 3.7 mph -999.0 mph 14% 0.00 in
12:50 49.5 °F 5.1 °F 23.45 in SSE 1.7 mph -999.0 mph 16% 0.00 in
13:06 48.9 °F 4.6 °F 23.45 in SSW 3.2 mph -999.0 mph 16% 0.00 in
13:21 48.2 °F 4.0 °F 23.45 in Calm   -999.0 mph 16% 0.00 in
13:36 47.5 °F 4.8 °F 23.45 in SSE 2.7 mph -999.0 mph 17% 0.00 in
13:51 47.7 °F 6.2 °F 23.44 in Calm   -999.0 mph 18% 0.00 in
14:06 47.3 °F 7.1 °F 23.44 in Calm   -999.0 mph 19% 0.00 in
14:22 46.2 °F 8.4 °F 23.44 in NW 1.7 mph -999.0 mph 21% 0.00 in
14:37 45.5 °F 7.8 °F 23.44 in Calm   -999.0 mph 21% 0.00 in
14:52 45.5 °F 3.2 °F 23.44 in NNW 4.2 mph -999.0 mph 17% 0.00 in
15:07 44.8 °F 7.2 °F 23.44 in NNW 3.7 mph -999.0 mph 21% 0.00 in
15:22 44.2 °F 6.7 °F 23.43 in NW 1.1 mph -999.0 mph 21% 0.00 in
15:38 43.7 °F 6.3 °F 23.43 in SE 3.7 mph -999.0 mph 21% 0.00 in
15:53 43.0 °F 6.7 °F 23.43 in Calm   -999.0 mph 22% 0.00 in
16:08 42.1 °F 5.9 °F 23.43 in Calm   -999.0 mph 22% 0.00 in
16:23 40.8 °F 2.8 °F 23.43 in NE 1.1 mph -999.0 mph 20% 0.00 in
16:38 40.1 °F -0.1 °F 23.43 in NE 2.7 mph -999.0 mph 18% 0.00 in
16:54 39.2 °F 4.5 °F 23.43 in Calm   -999.0 mph 23% 0.00 in
17:09 37.8 °F 2.3 °F 23.43 in Calm   -999.0 mph 22% 0.00 in
17:24 36.9 °F 2.5 °F 23.43 in Calm   -999.0 mph 23% 0.00 in
17:39 36.0 °F 5.2 °F 23.43 in Calm   -999.0 mph 27% 0.00 in
17:55 34.9 °F 3.4 °F 23.43 in Calm   -999.0 mph 26% 0.00 in
18:10 33.8 °F 10.9 °F 23.43 in SSE 1.7 mph -999.0 mph 38% 0.00 in
18:25 32.7 °F 8.7 °F 23.43 in Calm   -999.0 mph 36% 0.00 in
18:40 32.2 °F 8.2 °F 23.44 in Calm   -999.0 mph 36% 0.00 in
18:55 31.5 °F 11.0 °F 23.44 in SSE 1.7 mph -999.0 mph 42% 0.00 in
19:11 31.1 °F 10.7 °F 23.44 in Calm   -999.0 mph 42% 0.00 in
19:26 30.6 °F 6.8 °F 23.44 in SSE 2.2 mph -999.0 mph 36% 0.00 in
19:41 30.0 °F 7.4 °F 23.45 in Calm   -999.0 mph 38% 0.00 in
19:56 30.2 °F 11.9 °F 23.45 in South 2.7 mph -999.0 mph 46% 0.00 in
20:11 29.3 °F 10.6 °F 23.44 in Calm   -999.0 mph 45% 0.00 in
20:27 28.6 °F 11.4 °F 23.44 in Calm   -999.0 mph 48% 0.00 in
20:42 28.2 °F 10.5 °F 23.44 in Calm   -999.0 mph 47% 0.00 in
20:57 28.2 °F 10.5 °F 23.44 in Calm   -999.0 mph 47% 0.00 in
21:12 29.1 °F 14.1 °F 23.44 in Calm   -999.0 mph 53% 0.00 in
21:27 29.5 °F 11.2 °F 23.42 in Calm   -999.0 mph 46% 0.00 in
21:43 30.0 °F 11.7 °F 23.42 in South 1.7 mph -999.0 mph 46% 0.00 in
21:58 31.1 °F 9.6 °F 23.42 in ESE 1.7 mph -999.0 mph 40% 0.00 in
22:13 33.1 °F 7.1 °F 23.42 in Calm   -999.0 mph 33% 0.00 in
22:28 35.2 °F 6.8 °F 23.41 in Calm   -999.0 mph 30% 0.00 in
22:44 36.0 °F 6.8 °F 23.42 in East 1.1 mph -999.0 mph 29% 0.00 in
22:59 36.1 °F 5.3 °F 23.42 in Calm   -999.0 mph 27% 0.00 in
23:14 36.3 °F 2.9 °F 23.42 in Calm   -999.0 mph 24% 0.00 in
23:29 36.5 °F 1.2 °F 23.42 in Calm   -999.0 mph 22% 0.00 in
23:44 35.8 °F 1.6 °F 23.41 in South 1.7 mph -999.0 mph 23% 0.00 in
Big Bear CA Weather